createdAt,value
2019-03-10T00:01:31.834Z,6.38
2019-03-10T00:04:01.605Z,6.37
2019-03-10T00:06:32.743Z,6.26
2019-03-10T00:09:03.028Z,6.25
2019-03-10T00:11:34.421Z,6.24
2019-03-10T00:14:04.601Z,6.31
2019-03-10T00:16:34.447Z,6.27
2019-03-10T00:19:06.962Z,6.27
2019-03-10T00:21:36.714Z,6.34
2019-03-10T00:24:06.638Z,6.06
2019-03-10T00:26:36.447Z,6.11
2019-03-10T00:29:06.237Z,5.98
2019-03-10T00:31:36.398Z,5.90
2019-03-10T00:34:06.154Z,5.89
2019-03-10T00:36:36.002Z,5.80
2019-03-10T00:39:20.618Z,5.77
2019-03-10T00:42:23.139Z,5.72
2019-03-10T00:45:08.303Z,5.60
2019-03-10T00:47:41.158Z,5.61
2019-03-10T00:50:36.456Z,5.64
2019-03-10T00:53:06.100Z,5.60
2019-03-10T00:55:36.080Z,5.72
2019-03-10T00:58:05.727Z,5.56
2019-03-10T01:00:37.149Z,5.61
2019-03-10T01:03:06.949Z,5.59
2019-03-10T01:05:36.787Z,5.55
2019-03-10T01:08:07.265Z,5.47
2019-03-10T01:10:37.520Z,5.59
2019-03-10T01:13:08.336Z,5.72
2019-03-10T01:15:38.352Z,5.63
2019-03-10T01:18:08.237Z,5.48
2019-03-10T01:20:38.246Z,5.31
2019-03-10T01:23:08.060Z,5.15
2019-03-10T01:25:38.826Z,5.12
2019-03-10T01:28:08.696Z,5.08
2019-03-10T01:30:47.813Z,5.12
2019-03-10T01:33:23.578Z,5.09
2019-03-10T01:35:53.395Z,5.19
2019-03-10T01:38:23.374Z,5.28
2019-03-10T01:40:53.181Z,5.48
2019-03-10T01:43:22.979Z,5.51
2019-03-10T01:45:53.105Z,5.51
2019-03-10T01:48:23.779Z,5.57
2019-03-10T01:50:53.608Z,5.59
2019-03-10T01:53:25.904Z,5.60
2019-03-10T01:55:55.554Z,5.63
2019-03-10T01:58:28.739Z,5.64
2019-03-10T02:00:58.345Z,5.63
2019-03-10T02:03:28.108Z,5.66
2019-03-10T02:05:57.973Z,5.57
2019-03-10T02:08:29.101Z,5.33
2019-03-10T02:10:58.884Z,5.36
2019-03-10T02:13:28.586Z,5.37
2019-03-10T02:15:58.617Z,5.34
2019-03-10T02:18:28.382Z,5.39
2019-03-10T02:21:00.538Z,5.38
2019-03-10T02:23:30.326Z,5.37
2019-03-10T02:26:00.111Z,5.43
2019-03-10T02:28:29.945Z,5.62
2019-03-10T02:30:59.771Z,5.80
2019-03-10T02:33:29.430Z,5.64
2019-03-10T02:35:59.212Z,5.67
2019-03-10T02:38:29.038Z,5.58
2019-03-10T02:40:58.801Z,5.51
2019-03-10T02:43:28.634Z,5.43
2019-03-10T02:45:58.426Z,5.45
2019-03-10T02:48:28.202Z,5.45
2019-03-10T02:50:57.999Z,5.48
2019-03-10T02:53:27.747Z,5.40
2019-03-10T02:55:57.579Z,5.39
2019-03-10T02:58:27.446Z,5.21
2019-03-10T03:00:57.185Z,5.08
2019-03-10T03:03:26.961Z,4.99
2019-03-10T03:05:56.814Z,5.09
2019-03-10T03:08:26.582Z,4.89
2019-03-10T03:10:56.338Z,4.82
2019-03-10T03:13:26.157Z,4.82
2019-03-10T03:15:55.984Z,4.83
2019-03-10T03:18:25.748Z,4.93
2019-03-10T03:20:55.440Z,4.90
2019-03-10T03:23:26.253Z,4.95
2019-03-10T03:25:56.641Z,4.94
2019-03-10T03:28:26.385Z,4.76
2019-03-10T03:30:56.080Z,4.68
2019-03-10T03:33:25.909Z,4.60
2019-03-10T03:36:10.491Z,4.53
2019-03-10T03:38:56.440Z,4.58
2019-03-10T03:41:26.843Z,4.64
2019-03-10T03:43:56.637Z,4.73
2019-03-10T03:46:26.439Z,4.81
2019-03-10T03:48:56.923Z,4.82
2019-03-10T03:51:26.730Z,4.93
2019-03-10T03:53:56.505Z,4.99
2019-03-10T03:56:26.338Z,5.05
2019-03-10T03:58:56.174Z,5.14
2019-03-10T04:01:27.716Z,5.36
2019-03-10T04:03:57.497Z,5.36
2019-03-10T04:06:27.320Z,5.29
2019-03-10T04:08:57.092Z,5.26
2019-03-10T04:11:26.722Z,5.35
2019-03-10T04:13:56.513Z,5.21
2019-03-10T04:16:26.272Z,5.08
2019-03-10T04:18:56.057Z,4.98
2019-03-10T04:21:25.899Z,5.08
2019-03-10T04:23:55.664Z,4.88
2019-03-10T04:26:27.027Z,4.83
2019-03-10T04:28:56.805Z,4.74
2019-03-10T04:31:26.604Z,4.69
2019-03-10T04:33:56.396Z,4.67
2019-03-10T04:36:26.188Z,4.63
2019-03-10T04:38:57.577Z,4.66
2019-03-10T04:41:27.339Z,4.69
2019-03-10T04:43:57.169Z,4.62
2019-03-10T04:46:29.516Z,4.57
2019-03-10T04:48:59.393Z,4.53
2019-03-10T04:51:29.226Z,4.58
2019-03-10T04:53:59.008Z,4.61
2019-03-10T04:56:30.368Z,4.56
2019-03-10T04:59:00.459Z,4.35
2019-03-10T05:01:30.285Z,4.32
2019-03-10T05:04:00.116Z,4.36
2019-03-10T05:06:30.149Z,4.30
2019-03-10T05:08:59.940Z,4.40
2019-03-10T05:11:29.776Z,4.51
2019-03-10T05:13:59.553Z,4.47
2019-03-10T05:16:29.360Z,4.75
2019-03-10T05:18:59.237Z,4.83
2019-03-10T05:21:29.026Z,4.70
2019-03-10T05:24:01.907Z,4.68
2019-03-10T05:26:31.701Z,4.71
2019-03-10T05:29:01.536Z,4.90
2019-03-10T05:31:31.990Z,4.95
2019-03-10T05:34:02.325Z,4.95
2019-03-10T05:36:32.975Z,5.07
2019-03-10T05:39:04.519Z,5.09
2019-03-10T05:41:34.307Z,5.02
2019-03-10T05:44:04.100Z,4.93
2019-03-10T05:46:33.881Z,4.88
2019-03-10T05:49:03.736Z,4.81
2019-03-10T05:51:34.420Z,4.82
2019-03-10T05:54:04.383Z,4.88
2019-03-10T05:56:34.242Z,4.93
2019-03-10T05:59:04.187Z,4.95
2019-03-10T06:01:34.003Z,5.15
2019-03-10T06:04:04.039Z,5.01
2019-03-10T06:06:34.504Z,5.07
2019-03-10T06:09:06.001Z,5.32
2019-03-10T06:11:35.823Z,5.54
2019-03-10T06:14:05.628Z,5.86
2019-03-10T06:16:35.474Z,6.12
2019-03-10T06:19:05.235Z,6.52
2019-03-10T06:21:36.320Z,6.84
2019-03-10T06:24:07.229Z,7.40
2019-03-10T06:26:39.588Z,7.76
2019-03-10T06:29:10.365Z,7.69
2019-03-10T06:31:40.120Z,7.76
2019-03-10T06:34:09.947Z,7.89
2019-03-10T06:36:39.745Z,7.86
2019-03-10T06:39:09.528Z,7.82
2019-03-10T06:41:39.330Z,7.87
2019-03-10T06:44:09.125Z,7.85
2019-03-10T06:46:38.941Z,7.85
2019-03-10T06:49:08.717Z,7.94
2019-03-10T06:51:38.467Z,8.04
2019-03-10T06:54:08.250Z,8.03
2019-03-10T06:56:38.132Z,8.05
2019-03-10T06:59:08.254Z,8.17
2019-03-10T07:01:37.993Z,8.48
2019-03-10T07:04:07.802Z,8.94
2019-03-10T07:06:38.412Z,9.45
2019-03-10T07:09:08.181Z,9.90
2019-03-10T07:11:37.964Z,10.21
2019-03-10T07:14:07.687Z,10.65
2019-03-10T07:16:37.520Z,11.09
2019-03-10T07:19:10.601Z,11.36
2019-03-10T07:21:40.572Z,11.85
2019-03-10T07:24:10.398Z,12.13
2019-03-10T07:26:40.272Z,12.04
2019-03-10T07:29:14.369Z,12.14
2019-03-10T07:32:01.186Z,11.80
2019-03-10T07:34:48.044Z,12.01
2019-03-10T07:37:25.385Z,12.08
2019-03-10T07:40:13.386Z,12.07
2019-03-10T07:42:44.771Z,12.25
2019-03-10T07:45:17.858Z,12.17
2019-03-10T07:47:52.075Z,12.18
2019-03-10T07:50:38.756Z,12.35
2019-03-10T07:53:21.520Z,12.42
2019-03-10T07:56:04.942Z,12.50
2019-03-10T07:58:36.624Z,12.61
2019-03-10T08:01:13.995Z,12.62
2019-03-10T08:03:48.574Z,12.84
2019-03-10T08:06:27.608Z,13.40
2019-03-10T08:09:09.308Z,13.63
2019-03-10T08:11:52.635Z,13.74
2019-03-10T08:14:40.047Z,13.82
2019-03-10T08:17:24.736Z,13.91
2019-03-10T08:20:08.941Z,14.38
2019-03-10T08:22:43.200Z,14.37
2019-03-10T08:25:20.708Z,14.20
2019-03-10T08:28:01.197Z,13.98
2019-03-10T08:30:43.369Z,13.45
2019-03-10T08:33:20.528Z,13.46
2019-03-10T08:35:52.931Z,13.31
2019-03-10T08:38:33.359Z,13.54
2019-03-10T08:41:05.221Z,13.70
2019-03-10T08:43:36.584Z,13.85
2019-03-10T08:46:08.762Z,13.94
2019-03-10T08:48:42.700Z,14.01
2019-03-10T08:51:14.086Z,14.25
2019-03-10T08:53:55.036Z,14.60
2019-03-10T08:56:26.395Z,14.94
2019-03-10T08:58:58.806Z,15.34
2019-03-10T09:01:36.404Z,15.52
2019-03-10T09:04:07.807Z,15.33
2019-03-10T09:06:51.367Z,15.51
2019-03-10T09:09:22.793Z,16.02
2019-03-10T09:11:54.555Z,15.69
2019-03-10T09:14:44.394Z,15.55
2019-03-10T09:17:15.809Z,15.82
2019-03-10T09:19:47.326Z,16.37
2019-03-10T09:22:18.725Z,16.80
2019-03-10T09:24:50.885Z,17.08
2019-03-10T09:27:33.062Z,17.22
2019-03-10T09:30:06.691Z,17.35
2019-03-10T09:32:39.147Z,17.48
2019-03-10T09:35:10.448Z,17.49
2019-03-10T09:37:47.958Z,17.61
2019-03-10T09:40:19.314Z,17.58
2019-03-10T09:43:05.629Z,17.79
2019-03-10T09:45:45.608Z,17.88
2019-03-10T09:48:17.038Z,17.97
2019-03-10T09:50:57.190Z,18.01
2019-03-10T09:53:34.546Z,17.95
2019-03-10T09:56:12.026Z,17.86
2019-03-10T09:58:43.459Z,18.04
2019-03-10T10:01:14.797Z,18.06
2019-03-10T10:03:58.141Z,18.02
2019-03-10T10:06:35.562Z,18.15
2019-03-10T10:09:21.044Z,18.50
2019-03-10T10:12:13.792Z,18.63
2019-03-10T10:14:43.776Z,18.57
2019-03-10T10:17:17.885Z,18.60
2019-03-10T10:19:49.311Z,18.59
2019-03-10T10:22:26.543Z,18.58
2019-03-10T10:24:57.752Z,18.61
2019-03-10T10:27:35.267Z,18.67
2019-03-10T10:30:12.585Z,18.65
2019-03-10T10:32:59.932Z,18.52
2019-03-10T10:35:37.179Z,18.33
2019-03-10T10:38:18.623Z,18.25
2019-03-10T10:40:54.232Z,18.28
2019-03-10T10:43:38.551Z,18.27
2019-03-10T10:46:09.974Z,18.19
2019-03-10T10:48:41.506Z,18.14
2019-03-10T10:51:13.123Z,18.20
2019-03-10T10:53:51.688Z,18.06
2019-03-10T10:56:28.751Z,18.02
2019-03-10T10:59:00.117Z,17.87
2019-03-10T11:01:31.736Z,17.86
2019-03-10T11:04:08.894Z,17.82
2019-03-10T11:06:56.527Z,17.61
2019-03-10T11:09:33.745Z,17.60
2019-03-10T11:12:11.495Z,17.54
2019-03-10T11:14:42.947Z,17.46
2019-03-10T11:17:19.878Z,17.53
2019-03-10T11:20:00.730Z,17.64
2019-03-10T11:22:48.438Z,17.66
2019-03-10T11:25:19.871Z,17.76
2019-03-10T11:28:07.500Z,17.82
2019-03-10T11:30:38.972Z,17.74
2019-03-10T11:33:16.991Z,17.78
2019-03-10T11:36:06.776Z,17.65
2019-03-10T11:38:40.901Z,17.70
2019-03-10T11:41:15.252Z,17.84
2019-03-10T11:44:03.142Z,17.65
2019-03-10T11:46:46.856Z,17.72
2019-03-10T11:49:18.205Z,17.77
2019-03-10T11:51:58.172Z,17.86
2019-03-10T11:54:45.894Z,17.89
2019-03-10T11:57:29.576Z,17.85
2019-03-10T12:00:00.973Z,17.76
2019-03-10T12:02:47.484Z,17.80
2019-03-10T12:05:18.860Z,17.90
2019-03-10T12:07:59.277Z,18.03
2019-03-10T12:10:30.271Z,18.12
2019-03-10T12:13:00.150Z,18.18
2019-03-10T12:15:30.141Z,18.21
2019-03-10T12:18:01.504Z,18.38
2019-03-10T12:20:31.351Z,18.57
2019-03-10T12:23:01.352Z,18.73
2019-03-10T12:25:31.189Z,18.88
2019-03-10T12:28:01.071Z,18.84
2019-03-10T12:30:30.890Z,18.81
2019-03-10T12:33:00.795Z,18.78
2019-03-10T12:35:34.591Z,18.56
2019-03-10T12:38:02.168Z,18.58
2019-03-10T12:40:31.986Z,18.48
2019-03-10T12:43:01.789Z,18.44
2019-03-10T12:45:31.636Z,18.30
2019-03-10T12:48:01.641Z,18.22
2019-03-10T12:50:32.375Z,18.16
2019-03-10T12:53:02.065Z,18.09
2019-03-10T12:55:31.871Z,18.16
2019-03-10T12:58:01.664Z,18.20
2019-03-10T13:00:31.533Z,18.13
2019-03-10T13:03:01.653Z,18.01
2019-03-10T13:05:31.514Z,18.00
2019-03-10T13:08:01.323Z,18.01
2019-03-10T13:10:31.107Z,18.01
2019-03-10T13:13:00.982Z,18.06
2019-03-10T13:15:30.869Z,18.15
2019-03-10T13:18:01.873Z,18.20
2019-03-10T13:20:33.979Z,18.18
2019-03-10T13:23:03.227Z,18.06
2019-03-10T13:25:33.114Z,18.06
2019-03-10T13:28:02.916Z,18.02
2019-03-10T13:30:33.209Z,18.11
2019-03-10T13:33:03.917Z,18.10
2019-03-10T13:35:33.792Z,18.04
2019-03-10T13:38:03.824Z,17.84
2019-03-10T13:40:33.660Z,17.94
2019-03-10T13:43:03.570Z,17.91
2019-03-10T13:45:34.302Z,17.95
2019-03-10T13:48:03.975Z,18.10
2019-03-10T13:50:33.840Z,17.83
2019-03-10T13:53:03.827Z,17.88
2019-03-10T13:55:33.839Z,17.94
2019-03-10T13:58:03.666Z,18.08
2019-03-10T14:00:34.314Z,18.18
2019-03-10T14:03:04.246Z,18.13
2019-03-10T14:05:33.876Z,18.06
2019-03-10T14:08:03.737Z,18.04
2019-03-10T14:10:33.747Z,17.76
2019-03-10T14:13:03.587Z,17.68
2019-03-10T14:15:33.622Z,17.58
2019-03-10T14:18:03.470Z,17.56
2019-03-10T14:20:33.420Z,17.50
2019-03-10T14:23:03.422Z,17.53
2019-03-10T14:25:33.316Z,17.59
2019-03-10T14:28:03.170Z,17.74
2019-03-10T14:30:33.386Z,17.79
2019-03-10T14:33:03.389Z,17.69
2019-03-10T14:35:33.181Z,17.67
2019-03-10T14:38:03.006Z,17.77
2019-03-10T14:40:33.062Z,17.78
2019-03-10T14:43:02.886Z,17.76
2019-03-10T14:45:32.763Z,17.71
2019-03-10T14:48:02.755Z,17.62
2019-03-10T14:50:32.567Z,17.51
2019-03-10T14:53:04.578Z,17.46
2019-03-10T14:55:34.397Z,17.39
2019-03-10T14:58:04.228Z,17.30
2019-03-10T15:00:34.061Z,17.28
2019-03-10T15:03:03.924Z,17.19
2019-03-10T15:05:33.799Z,17.16
2019-03-10T15:08:03.626Z,17.15
2019-03-10T15:10:33.700Z,17.18
2019-03-10T15:13:03.527Z,17.14
2019-03-10T15:15:33.606Z,17.11
2019-03-10T15:18:03.467Z,17.17
2019-03-10T15:20:33.294Z,17.10
2019-03-10T15:23:03.117Z,17.01
2019-03-10T15:25:32.951Z,16.94
2019-03-10T15:28:02.818Z,16.84
2019-03-10T15:30:32.521Z,16.73
2019-03-10T15:33:03.073Z,16.62
2019-03-10T15:35:33.063Z,16.53
2019-03-10T15:38:03.042Z,16.42
2019-03-10T15:40:33.330Z,16.39
2019-03-10T15:43:03.176Z,16.21
2019-03-10T15:45:33.015Z,16.14
2019-03-10T15:48:02.857Z,16.05
2019-03-10T15:50:37.393Z,15.99
2019-03-10T15:53:07.134Z,15.87
2019-03-10T15:55:37.811Z,15.81
2019-03-10T15:58:07.661Z,15.74
2019-03-10T16:00:39.872Z,15.69
2019-03-10T16:03:09.684Z,15.61
2019-03-10T16:05:39.531Z,15.59
2019-03-10T16:08:09.432Z,15.50
2019-03-10T16:10:39.228Z,15.45
2019-03-10T16:13:09.079Z,15.38
2019-03-10T16:15:38.881Z,15.31
2019-03-10T16:18:08.737Z,15.23
2019-03-10T16:20:38.651Z,15.13
2019-03-10T16:23:08.463Z,15.07
2019-03-10T16:25:38.297Z,14.99
2019-03-10T16:28:08.443Z,14.92
2019-03-10T16:30:38.587Z,14.84
2019-03-10T16:33:08.384Z,14.76
2019-03-10T16:35:38.382Z,14.72
2019-03-10T16:38:08.087Z,14.64
2019-03-10T16:40:37.910Z,14.56
2019-03-10T16:43:07.834Z,14.50
2019-03-10T16:45:38.654Z,14.43
2019-03-10T16:48:08.588Z,14.37
2019-03-10T16:50:38.439Z,14.29
2019-03-10T16:53:08.235Z,14.23
2019-03-10T16:55:38.226Z,14.22
2019-03-10T16:58:07.827Z,14.17
2019-03-10T17:00:37.711Z,14.13
2019-03-10T17:03:07.709Z,14.16
2019-03-10T17:05:37.736Z,14.12
2019-03-10T17:08:07.716Z,14.04
2019-03-10T17:10:37.519Z,13.92
2019-03-10T17:13:07.471Z,13.81
2019-03-10T17:15:37.314Z,13.71
2019-03-10T17:18:07.095Z,13.60
2019-03-10T17:20:36.969Z,13.50
2019-03-10T17:23:07.023Z,13.42
2019-03-10T17:25:37.033Z,13.36
2019-03-10T17:28:06.852Z,13.42
2019-03-10T17:30:36.759Z,13.38
2019-03-10T17:33:06.762Z,13.30
2019-03-10T17:35:36.641Z,13.20
2019-03-10T17:38:06.568Z,13.14
2019-03-10T17:40:36.567Z,13.19
2019-03-10T17:43:08.025Z,13.07
2019-03-10T17:45:38.216Z,13.01
2019-03-10T17:48:08.040Z,13.02
2019-03-10T17:50:38.812Z,13.02
2019-03-10T17:53:08.681Z,13.06
2019-03-10T17:55:38.497Z,13.15
2019-03-10T17:58:08.404Z,13.06
2019-03-10T18:00:39.579Z,12.97
2019-03-10T18:03:09.477Z,12.87
2019-03-10T18:05:39.402Z,12.83
2019-03-10T18:08:09.349Z,13.00
2019-03-10T18:10:39.176Z,12.89
2019-03-10T18:13:09.084Z,12.82
2019-03-10T18:15:38.896Z,12.79
2019-03-10T18:18:10.318Z,12.74
2019-03-10T18:20:40.165Z,12.64
2019-03-10T18:23:09.973Z,12.67
2019-03-10T18:25:39.852Z,12.60
2019-03-10T18:28:09.812Z,12.53
2019-03-10T18:30:39.824Z,12.47
2019-03-10T18:33:09.782Z,12.42
2019-03-10T18:35:39.710Z,12.43
2019-03-10T18:38:09.508Z,12.40
2019-03-10T18:40:39.508Z,12.36
2019-03-10T18:43:09.335Z,12.55
2019-03-10T18:45:39.223Z,12.45
2019-03-10T18:48:09.923Z,12.42
2019-03-10T18:50:39.850Z,12.37
2019-03-10T18:53:09.868Z,12.35
2019-03-10T18:55:39.831Z,12.62
2019-03-10T18:58:09.651Z,12.64
2019-03-10T19:00:39.705Z,12.47
2019-03-10T19:03:09.802Z,12.39
2019-03-10T19:05:39.801Z,12.32
2019-03-10T19:08:09.710Z,12.26
2019-03-10T19:10:41.183Z,12.28
2019-03-10T19:13:11.214Z,12.30
2019-03-10T19:15:41.358Z,12.21
2019-03-10T19:18:11.230Z,12.27
2019-03-10T19:20:41.054Z,12.19
2019-03-10T19:23:10.999Z,12.12
2019-03-10T19:25:40.867Z,12.14
2019-03-10T19:28:10.791Z,12.14
2019-03-10T19:30:40.661Z,12.24
2019-03-10T19:33:10.572Z,12.31
2019-03-10T19:35:40.516Z,12.23
2019-03-10T19:38:10.427Z,12.23
2019-03-10T19:40:40.329Z,12.23
2019-03-10T19:43:10.281Z,12.20
2019-03-10T19:45:40.130Z,12.14
2019-03-10T19:48:10.152Z,12.24
2019-03-10T19:50:40.045Z,12.15
2019-03-10T19:53:09.896Z,12.20
2019-03-10T19:55:39.829Z,12.17
2019-03-10T19:58:09.701Z,12.05
2019-03-10T20:00:39.549Z,12.17
2019-03-10T20:03:09.728Z,12.11
2019-03-10T20:05:40.756Z,12.14
2019-03-10T20:08:10.640Z,12.38
2019-03-10T20:10:40.454Z,12.22
2019-03-10T20:13:10.336Z,12.45
2019-03-10T20:15:41.814Z,12.28
2019-03-10T20:18:11.624Z,12.19
2019-03-10T20:20:41.441Z,12.11
2019-03-10T20:23:11.273Z,12.10
2019-03-10T20:25:41.156Z,12.12
2019-03-10T20:28:10.970Z,12.07
2019-03-10T20:30:40.969Z,12.21
2019-03-10T20:33:12.777Z,12.04
2019-03-10T20:35:42.658Z,11.91
2019-03-10T20:38:12.470Z,12.01
2019-03-10T20:40:43.663Z,12.01
2019-03-10T20:43:13.463Z,11.95
2019-03-10T20:45:44.313Z,11.88
2019-03-10T20:48:14.223Z,11.91
2019-03-10T20:50:43.973Z,11.88
2019-03-10T20:53:13.994Z,11.82
2019-03-10T20:55:43.956Z,11.77
2019-03-10T20:58:13.811Z,11.78
2019-03-10T21:00:43.504Z,11.78
2019-03-10T21:03:13.544Z,11.77
2019-03-10T21:05:43.347Z,11.75
2019-03-10T21:08:13.426Z,11.77
2019-03-10T21:10:44.090Z,11.85
2019-03-10T21:13:13.968Z,11.96
2019-03-10T21:15:43.796Z,11.88
2019-03-10T21:18:13.624Z,11.82
2019-03-10T21:20:43.469Z,11.78
2019-03-10T21:23:13.286Z,11.72
2019-03-10T21:25:43.166Z,11.66
2019-03-10T21:28:13.050Z,11.58
2019-03-10T21:30:42.824Z,11.51
2019-03-10T21:33:13.140Z,11.45
2019-03-10T21:35:42.928Z,11.45
2019-03-10T21:38:12.768Z,11.46
2019-03-10T21:40:42.606Z,11.51
2019-03-10T21:43:12.403Z,11.64
2019-03-10T21:45:42.051Z,11.74
2019-03-10T21:48:11.694Z,11.75
2019-03-10T21:50:41.519Z,11.85
2019-03-10T21:53:11.327Z,11.75
2019-03-10T21:55:41.201Z,11.68
2019-03-10T21:58:11.427Z,11.67
2019-03-10T22:00:42.302Z,11.52
2019-03-10T22:03:12.468Z,11.38
2019-03-10T22:05:42.286Z,11.29
2019-03-10T22:08:12.097Z,11.40
2019-03-10T22:10:41.936Z,11.34
2019-03-10T22:13:11.668Z,11.58
2019-03-10T22:15:42.178Z,11.51
2019-03-10T22:18:12.232Z,11.56
2019-03-10T22:20:44.603Z,11.81
2019-03-10T22:23:14.745Z,11.87
2019-03-10T22:25:44.691Z,11.81
2019-03-10T22:28:14.396Z,11.85
2019-03-10T22:30:44.690Z,11.85
2019-03-10T22:33:14.518Z,11.83
2019-03-10T22:35:44.339Z,11.85
2019-03-10T22:38:15.343Z,11.82
2019-03-10T22:40:45.417Z,11.80
2019-03-10T22:43:15.171Z,11.74
2019-03-10T22:45:47.176Z,11.76
2019-03-10T22:48:16.921Z,11.67
2019-03-10T22:50:46.724Z,11.67
2019-03-10T22:53:16.676Z,11.51
2019-03-10T22:55:46.480Z,11.63
2019-03-10T22:58:17.207Z,11.47
2019-03-10T23:00:54.527Z,11.37
2019-03-10T23:03:25.087Z,11.28
2019-03-10T23:05:54.857Z,11.21
2019-03-10T23:08:24.676Z,11.13
2019-03-10T23:10:54.433Z,11.17
2019-03-10T23:13:24.213Z,11.14
2019-03-10T23:15:53.941Z,11.08
2019-03-10T23:18:23.817Z,11.04
2019-03-10T23:20:54.633Z,10.99
2019-03-10T23:23:24.446Z,10.97
2019-03-10T23:25:54.221Z,10.93
2019-03-10T23:28:24.132Z,10.97
2019-03-10T23:30:54.004Z,10.90
2019-03-10T23:33:23.734Z,10.86
2019-03-10T23:35:53.544Z,10.87
2019-03-10T23:38:23.386Z,10.80
2019-03-10T23:40:53.183Z,10.91
2019-03-10T23:43:22.991Z,10.92
2019-03-10T23:45:52.767Z,10.92
2019-03-10T23:48:22.613Z,10.92
2019-03-10T23:50:52.389Z,10.92
2019-03-10T23:53:22.185Z,10.89
2019-03-10T23:55:51.949Z,10.86
2019-03-10T23:58:21.846Z,10.84
